sensor_id;sensor_type;location;lat;lon;timestamp;P1;durP1;ratioP1;P2;durP2;ratioP2
10295;SDS011;5193;51.032;6.356;2023-05-02T00:00:28;23.10;;;18.07;;
10295;SDS011;5193;51.032;6.356;2023-05-02T00:02:55;26.00;;;20.43;;
10295;SDS011;5193;51.032;6.356;2023-05-02T00:05:21;25.90;;;20.23;;
10295;SDS011;5193;51.032;6.356;2023-05-02T00:07:47;26.43;;;21.33;;
10295;SDS011;5193;51.032;6.356;2023-05-02T00:10:12;26.33;;;20.03;;
10295;SDS011;5193;51.032;6.356;2023-05-02T00:12:38;27.23;;;20.60;;
10295;SDS011;5193;51.032;6.356;2023-05-02T00:15:04;26.20;;;21.17;;
10295;SDS011;5193;51.032;6.356;2023-05-02T00:17:30;28.63;;;21.63;;
10295;SDS011;5193;51.032;6.356;2023-05-02T00:19:56;31.50;;;22.30;;
10295;SDS011;5193;51.032;6.356;2023-05-02T00:22:21;35.23;;;23.33;;
10295;SDS011;5193;51.032;6.356;2023-05-02T00:24:47;32.03;;;22.57;;
10295;SDS011;5193;51.032;6.356;2023-05-02T00:27:13;31.00;;;23.37;;
10295;SDS011;5193;51.032;6.356;2023-05-02T00:29:38;38.93;;;23.60;;
10295;SDS011;5193;51.032;6.356;2023-05-02T00:32:05;33.60;;;24.17;;
10295;SDS011;5193;51.032;6.356;2023-05-02T00:34:31;34.57;;;24.60;;
10295;SDS011;5193;51.032;6.356;2023-05-02T00:36:56;37.77;;;24.43;;
10295;SDS011;5193;51.032;6.356;2023-05-02T00:39:22;36.43;;;25.10;;
10295;SDS011;5193;51.032;6.356;2023-05-02T00:41:48;34.50;;;25.40;;
10295;SDS011;5193;51.032;6.356;2023-05-02T00:44:14;38.53;;;25.00;;
10295;SDS011;5193;51.032;6.356;2023-05-02T00:46:40;39.90;;;26.27;;
10295;SDS011;5193;51.032;6.356;2023-05-02T00:49:06;36.40;;;25.60;;
10295;SDS011;5193;51.032;6.356;2023-05-02T00:51:34;39.87;;;26.33;;
10295;SDS011;5193;51.032;6.356;2023-05-02T00:54:00;41.90;;;27.10;;
10295;SDS011;5193;51.032;6.356;2023-05-02T00:56:26;42.83;;;27.93;;
10295;SDS011;5193;51.032;6.356;2023-05-02T00:58:51;41.43;;;27.07;;
10295;SDS011;5193;51.032;6.356;2023-05-02T01:11:52;40.87;;;26.97;;
10295;SDS011;5193;51.032;6.356;2023-05-02T01:14:27;40.20;;;27.07;;
10295;SDS011;5193;51.032;6.356;2023-05-02T01:16:55;45.33;;;29.23;;
10295;SDS011;5193;51.032;6.356;2023-05-02T01:19:28;40.77;;;26.47;;
10295;SDS011;5193;51.032;6.356;2023-05-02T01:22:04;41.67;;;28.70;;
10295;SDS011;5193;51.032;6.356;2023-05-02T01:27:48;44.10;;;28.07;;
10295;SDS011;5193;51.032;6.356;2023-05-02T01:30:21;37.73;;;25.80;;
10295;SDS011;5193;51.032;6.356;2023-05-02T01:32:50;44.17;;;26.20;;
10295;SDS011;5193;51.032;6.356;2023-05-02T01:35:17;39.97;;;26.37;;
10295;SDS011;5193;51.032;6.356;2023-05-02T01:37:45;40.60;;;25.73;;
10295;SDS011;5193;51.032;6.356;2023-05-02T01:40:13;43.07;;;26.53;;
10295;SDS011;5193;51.032;6.356;2023-05-02T01:42:43;40.60;;;27.53;;
10295;SDS011;5193;51.032;6.356;2023-05-02T01:45:11;40.13;;;26.57;;
10295;SDS011;5193;51.032;6.356;2023-05-02T01:47:37;44.30;;;26.37;;
10295;SDS011;5193;51.032;6.356;2023-05-02T01:50:07;42.87;;;26.43;;
10295;SDS011;5193;51.032;6.356;2023-05-02T01:52:38;41.43;;;27.17;;
10295;SDS011;5193;51.032;6.356;2023-05-02T01:55:05;40.50;;;25.57;;
10295;SDS011;5193;51.032;6.356;2023-05-02T01:57:35;41.27;;;24.90;;
10295;SDS011;5193;51.032;6.356;2023-05-02T02:00:04;41.33;;;25.30;;
10295;SDS011;5193;51.032;6.356;2023-05-02T02:02:32;45.47;;;26.10;;
10295;SDS011;5193;51.032;6.356;2023-05-02T02:04:59;41.67;;;25.97;;
10295;SDS011;5193;51.032;6.356;2023-05-02T02:07:28;39.40;;;25.23;;
10295;SDS011;5193;51.032;6.356;2023-05-02T02:09:54;39.90;;;25.77;;
10295;SDS011;5193;51.032;6.356;2023-05-02T02:12:26;41.13;;;25.73;;
10295;SDS011;5193;51.032;6.356;2023-05-02T02:14:55;40.07;;;25.63;;
10295;SDS011;5193;51.032;6.356;2023-05-02T02:17:41;41.67;;;25.53;;
10295;SDS011;5193;51.032;6.356;2023-05-02T02:20:10;42.77;;;25.57;;
10295;SDS011;5193;51.032;6.356;2023-05-02T02:22:38;47.90;;;27.70;;
10295;SDS011;5193;51.032;6.356;2023-05-02T02:25:07;49.27;;;28.73;;
10295;SDS011;5193;51.032;6.356;2023-05-02T02:27:37;45.30;;;31.03;;
10295;SDS011;5193;51.032;6.356;2023-05-02T02:30:04;53.30;;;30.40;;
10295;SDS011;5193;51.032;6.356;2023-05-02T02:32:30;51.20;;;31.43;;
10295;SDS011;5193;51.032;6.356;2023-05-02T02:34:56;58.57;;;32.47;;
10295;SDS011;5193;51.032;6.356;2023-05-02T02:37:29;51.37;;;30.57;;
10295;SDS011;5193;51.032;6.356;2023-05-02T02:40:03;51.37;;;31.13;;
10295;SDS011;5193;51.032;6.356;2023-05-02T02:50:35;52.13;;;30.33;;
10295;SDS011;5193;51.032;6.356;2023-05-02T02:53:15;49.57;;;31.23;;
10295;SDS011;5193;51.032;6.356;2023-05-02T02:55:45;51.00;;;31.17;;
10295;SDS011;5193;51.032;6.356;2023-05-02T03:01:09;51.63;;;30.77;;
10295;SDS011;5193;51.032;6.356;2023-05-02T03:03:39;48.30;;;31.37;;
10295;SDS011;5193;51.032;6.356;2023-05-02T03:06:07;50.67;;;29.73;;
10295;SDS011;5193;51.032;6.356;2023-05-02T03:08:39;50.63;;;30.70;;
10295;SDS011;5193;51.032;6.356;2023-05-02T03:11:06;45.97;;;28.63;;
10295;SDS011;5193;51.032;6.356;2023-05-02T03:13:32;46.43;;;28.50;;
10295;SDS011;5193;51.032;6.356;2023-05-02T03:18:42;48.77;;;29.23;;
10295;SDS011;5193;51.032;6.356;2023-05-02T03:21:07;49.70;;;31.03;;
10295;SDS011;5193;51.032;6.356;2023-05-02T03:23:33;48.63;;;29.63;;
10295;SDS011;5193;51.032;6.356;2023-05-02T03:25:59;52.03;;;30.83;;
10295;SDS011;5193;51.032;6.356;2023-05-02T03:28:24;49.50;;;29.00;;
10295;SDS011;5193;51.032;6.356;2023-05-02T03:30:50;47.83;;;30.30;;
10295;SDS011;5193;51.032;6.356;2023-05-02T03:33:15;46.43;;;28.20;;
10295;SDS011;5193;51.032;6.356;2023-05-02T03:35:41;49.07;;;30.13;;
10295;SDS011;5193;51.032;6.356;2023-05-02T03:38:06;45.50;;;26.50;;
10295;SDS011;5193;51.032;6.356;2023-05-02T03:40:32;41.87;;;26.17;;
10295;SDS011;5193;51.032;6.356;2023-05-02T03:42:57;46.90;;;26.67;;
10295;SDS011;5193;51.032;6.356;2023-05-02T03:45:23;42.37;;;24.90;;
10295;SDS011;5193;51.032;6.356;2023-05-02T03:47:48;43.40;;;23.67;;
10295;SDS011;5193;51.032;6.356;2023-05-02T03:50:14;42.87;;;24.07;;
10295;SDS011;5193;51.032;6.356;2023-05-02T03:52:40;42.07;;;22.87;;
10295;SDS011;5193;51.032;6.356;2023-05-02T03:55:05;37.87;;;22.83;;
10295;SDS011;5193;51.032;6.356;2023-05-02T03:57:31;34.30;;;22.23;;
10295;SDS011;5193;51.032;6.356;2023-05-02T03:59:57;38.13;;;21.93;;
10295;SDS011;5193;51.032;6.356;2023-05-02T04:02:23;37.07;;;21.07;;
10295;SDS011;5193;51.032;6.356;2023-05-02T04:04:49;35.30;;;21.77;;
10295;SDS011;5193;51.032;6.356;2023-05-02T04:07:15;38.03;;;21.43;;
10295;SDS011;5193;51.032;6.356;2023-05-02T04:09:43;35.47;;;20.77;;
10295;SDS011;5193;51.032;6.356;2023-05-02T04:12:09;38.63;;;20.73;;
10295;SDS011;5193;51.032;6.356;2023-05-02T04:14:34;32.43;;;20.03;;
10295;SDS011;5193;51.032;6.356;2023-05-02T04:17:00;33.03;;;19.23;;
10295;SDS011;5193;51.032;6.356;2023-05-02T04:19:25;35.57;;;19.47;;
10295;SDS011;5193;51.032;6.356;2023-05-02T04:21:51;31.27;;;18.30;;
10295;SDS011;5193;51.032;6.356;2023-05-02T04:24:17;28.83;;;18.07;;
10295;SDS011;5193;51.032;6.356;2023-05-02T04:26:42;30.70;;;18.17;;
10295;SDS011;5193;51.032;6.356;2023-05-02T04:29:08;24.93;;;16.57;;
10295;SDS011;5193;51.032;6.356;2023-05-02T04:31:34;34.13;;;17.50;;
10295;SDS011;5193;51.032;6.356;2023-05-02T04:34:00;27.77;;;16.40;;
10295;SDS011;5193;51.032;6.356;2023-05-02T04:36:25;27.40;;;15.70;;
10295;SDS011;5193;51.032;6.356;2023-05-02T04:38:52;29.37;;;16.33;;
10295;SDS011;5193;51.032;6.356;2023-05-02T04:41:18;25.60;;;15.27;;
10295;SDS011;5193;51.032;6.356;2023-05-02T04:43:44;23.27;;;13.90;;
10295;SDS011;5193;51.032;6.356;2023-05-02T04:46:09;24.90;;;13.67;;
10295;SDS011;5193;51.032;6.356;2023-05-02T04:48:35;23.57;;;13.27;;
10295;SDS011;5193;51.032;6.356;2023-05-02T04:51:01;21.20;;;12.93;;
10295;SDS011;5193;51.032;6.356;2023-05-02T04:53:26;23.57;;;13.47;;
10295;SDS011;5193;51.032;6.356;2023-05-02T04:55:52;20.90;;;12.17;;
10295;SDS011;5193;51.032;6.356;2023-05-02T04:58:18;20.00;;;12.17;;
10295;SDS011;5193;51.032;6.356;2023-05-02T05:00:44;20.10;;;12.47;;
10295;SDS011;5193;51.032;6.356;2023-05-02T05:03:09;21.07;;;13.00;;
10295;SDS011;5193;51.032;6.356;2023-05-02T05:05:35;22.53;;;13.07;;
10295;SDS011;5193;51.032;6.356;2023-05-02T05:08:01;22.87;;;13.10;;
10295;SDS011;5193;51.032;6.356;2023-05-02T05:10:26;25.03;;;13.30;;
10295;SDS011;5193;51.032;6.356;2023-05-02T05:12:52;23.83;;;12.23;;
10295;SDS011;5193;51.032;6.356;2023-05-02T05:15:17;18.40;;;11.90;;
10295;SDS011;5193;51.032;6.356;2023-05-02T05:17:46;20.53;;;12.30;;
10295;SDS011;5193;51.032;6.356;2023-05-02T05:20:12;21.10;;;13.17;;
10295;SDS011;5193;51.032;6.356;2023-05-02T05:22:40;22.73;;;12.37;;
10295;SDS011;5193;51.032;6.356;2023-05-02T05:25:10;23.80;;;12.70;;
10295;SDS011;5193;51.032;6.356;2023-05-02T05:27:36;26.07;;;12.43;;
10295;SDS011;5193;51.032;6.356;2023-05-02T05:30:04;18.30;;;11.90;;
10295;SDS011;5193;51.032;6.356;2023-05-02T05:32:33;20.43;;;12.63;;
10295;SDS011;5193;51.032;6.356;2023-05-02T05:34:59;22.93;;;11.40;;
10295;SDS011;5193;51.032;6.356;2023-05-02T05:37:25;21.73;;;11.77;;
10295;SDS011;5193;51.032;6.356;2023-05-02T05:39:51;25.27;;;12.47;;
10295;SDS011;5193;51.032;6.356;2023-05-02T05:42:16;20.63;;;11.70;;
10295;SDS011;5193;51.032;6.356;2023-05-02T05:44:42;19.30;;;11.20;;
10295;SDS011;5193;51.032;6.356;2023-05-02T05:47:07;20.13;;;12.70;;
10295;SDS011;5193;51.032;6.356;2023-05-02T05:49:33;21.83;;;12.47;;
10295;SDS011;5193;51.032;6.356;2023-05-02T05:52:00;21.53;;;12.67;;
10295;SDS011;5193;51.032;6.356;2023-05-02T05:54:26;20.73;;;11.83;;
10295;SDS011;5193;51.032;6.356;2023-05-02T05:56:52;21.03;;;11.93;;
10295;SDS011;5193;51.032;6.356;2023-05-02T05:59:18;21.50;;;12.63;;
10295;SDS011;5193;51.032;6.356;2023-05-02T06:01:43;16.80;;;11.73;;
10295;SDS011;5193;51.032;6.356;2023-05-02T06:04:09;18.53;;;11.67;;
10295;SDS011;5193;51.032;6.356;2023-05-02T06:06:35;21.30;;;12.70;;
10295;SDS011;5193;51.032;6.356;2023-05-02T06:09:00;18.83;;;12.13;;
10295;SDS011;5193;51.032;6.356;2023-05-02T06:11:26;25.03;;;13.00;;
10295;SDS011;5193;51.032;6.356;2023-05-02T06:13:52;19.27;;;12.70;;
10295;SDS011;5193;51.032;6.356;2023-05-02T06:16:18;21.20;;;12.77;;
10295;SDS011;5193;51.032;6.356;2023-05-02T06:18:44;22.07;;;12.27;;
10295;SDS011;5193;51.032;6.356;2023-05-02T06:21:10;20.80;;;12.10;;
10295;SDS011;5193;51.032;6.356;2023-05-02T06:23:36;21.40;;;12.23;;
10295;SDS011;5193;51.032;6.356;2023-05-02T06:26:02;22.60;;;12.73;;
10295;SDS011;5193;51.032;6.356;2023-05-02T06:28:28;19.37;;;11.57;;
10295;SDS011;5193;51.032;6.356;2023-05-02T06:30:58;19.53;;;11.50;;
10295;SDS011;5193;51.032;6.356;2023-05-02T06:33:26;19.20;;;11.20;;
10295;SDS011;5193;51.032;6.356;2023-05-02T06:35:52;16.57;;;11.00;;
10295;SDS011;5193;51.032;6.356;2023-05-02T06:38:18;16.20;;;9.93;;
10295;SDS011;5193;51.032;6.356;2023-05-02T06:40:44;15.90;;;10.50;;
10295;SDS011;5193;51.032;6.356;2023-05-02T06:43:10;21.83;;;10.50;;
10295;SDS011;5193;51.032;6.356;2023-05-02T06:45:35;12.70;;;7.67;;
10295;SDS011;5193;51.032;6.356;2023-05-02T06:48:01;9.97;;;5.30;;
10295;SDS011;5193;51.032;6.356;2023-05-02T06:50:27;13.30;;;5.23;;
10295;SDS011;5193;51.032;6.356;2023-05-02T06:52:53;11.07;;;5.13;;
10295;SDS011;5193;51.032;6.356;2023-05-02T06:55:19;7.47;;;4.73;;
10295;SDS011;5193;51.032;6.356;2023-05-02T06:57:45;6.07;;;4.17;;
10295;SDS011;5193;51.032;6.356;2023-05-02T07:00:11;10.73;;;4.20;;
10295;SDS011;5193;51.032;6.356;2023-05-02T07:02:37;8.73;;;3.83;;
10295;SDS011;5193;51.032;6.356;2023-05-02T07:05:03;8.97;;;4.10;;
10295;SDS011;5193;51.032;6.356;2023-05-02T07:07:28;6.57;;;4.30;;
10295;SDS011;5193;51.032;6.356;2023-05-02T07:09:54;7.20;;;2.93;;
10295;SDS011;5193;51.032;6.356;2023-05-02T07:12:20;6.37;;;2.80;;
10295;SDS011;5193;51.032;6.356;2023-05-02T07:14:46;8.83;;;2.87;;
10295;SDS011;5193;51.032;6.356;2023-05-02T07:17:11;5.70;;;2.80;;
10295;SDS011;5193;51.032;6.356;2023-05-02T07:19:37;4.37;;;2.40;;
10295;SDS011;5193;51.032;6.356;2023-05-02T07:22:02;5.90;;;2.60;;
10295;SDS011;5193;51.032;6.356;2023-05-02T07:24:28;4.93;;;1.87;;
10295;SDS011;5193;51.032;6.356;2023-05-02T07:26:54;6.57;;;2.93;;
10295;SDS011;5193;51.032;6.356;2023-05-02T07:29:19;5.20;;;2.20;;
10295;SDS011;5193;51.032;6.356;2023-05-02T07:31:45;4.67;;;2.10;;
10295;SDS011;5193;51.032;6.356;2023-05-02T07:34:11;6.80;;;2.57;;
10295;SDS011;5193;51.032;6.356;2023-05-02T07:36:37;9.87;;;2.57;;
10295;SDS011;5193;51.032;6.356;2023-05-02T07:39:03;5.03;;;2.50;;
10295;SDS011;5193;51.032;6.356;2023-05-02T07:41:28;7.73;;;2.20;;
10295;SDS011;5193;51.032;6.356;2023-05-02T07:43:54;4.57;;;2.17;;
10295;SDS011;5193;51.032;6.356;2023-05-02T07:46:21;3.67;;;2.00;;
10295;SDS011;5193;51.032;6.356;2023-05-02T07:48:47;4.83;;;2.10;;
10295;SDS011;5193;51.032;6.356;2023-05-02T07:51:13;3.03;;;1.80;;
10295;SDS011;5193;51.032;6.356;2023-05-02T07:53:38;4.67;;;1.87;;
10295;SDS011;5193;51.032;6.356;2023-05-02T07:56:04;6.33;;;1.73;;
10295;SDS011;5193;51.032;6.356;2023-05-02T07:58:31;4.53;;;1.93;;
10295;SDS011;5193;51.032;6.356;2023-05-02T08:00:57;5.50;;;1.87;;
10295;SDS011;5193;51.032;6.356;2023-05-02T08:03:22;2.63;;;1.70;;
10295;SDS011;5193;51.032;6.356;2023-05-02T08:05:48;6.73;;;1.93;;
10295;SDS011;5193;51.032;6.356;2023-05-02T08:08:13;6.00;;;2.00;;
10295;SDS011;5193;51.032;6.356;2023-05-02T08:10:39;4.53;;;1.77;;
10295;SDS011;5193;51.032;6.356;2023-05-02T08:13:05;5.73;;;2.30;;
10295;SDS011;5193;51.032;6.356;2023-05-02T08:15:30;5.73;;;2.20;;
10295;SDS011;5193;51.032;6.356;2023-05-02T08:17:56;4.53;;;1.87;;
10295;SDS011;5193;51.032;6.356;2023-05-02T08:20:21;4.20;;;1.87;;
10295;SDS011;5193;51.032;6.356;2023-05-02T08:22:47;6.83;;;2.27;;
10295;SDS011;5193;51.032;6.356;2023-05-02T08:25:12;7.20;;;2.00;;
10295;SDS011;5193;51.032;6.356;2023-05-02T08:27:38;9.90;;;2.73;;
10295;SDS011;5193;51.032;6.356;2023-05-02T08:30:04;6.77;;;2.23;;
10295;SDS011;5193;51.032;6.356;2023-05-02T08:32:31;7.80;;;2.10;;
10295;SDS011;5193;51.032;6.356;2023-05-02T08:34:56;3.10;;;1.70;;
10295;SDS011;5193;51.032;6.356;2023-05-02T08:37:22;3.97;;;1.60;;
10295;SDS011;5193;51.032;6.356;2023-05-02T08:39:48;5.07;;;2.10;;
10295;SDS011;5193;51.032;6.356;2023-05-02T08:42:13;9.13;;;2.57;;
10295;SDS011;5193;51.032;6.356;2023-05-02T08:44:39;6.93;;;2.20;;
10295;SDS011;5193;51.032;6.356;2023-05-02T08:47:05;4.97;;;2.20;;
10295;SDS011;5193;51.032;6.356;2023-05-02T08:49:33;6.70;;;2.10;;
10295;SDS011;5193;51.032;6.356;2023-05-02T08:52:02;7.23;;;2.03;;
10295;SDS011;5193;51.032;6.356;2023-05-02T08:54:30;5.87;;;2.17;;
10295;SDS011;5193;51.032;6.356;2023-05-02T08:56:56;7.30;;;2.40;;
10295;SDS011;5193;51.032;6.356;2023-05-02T08:59:23;5.30;;;1.97;;
10295;SDS011;5193;51.032;6.356;2023-05-02T09:01:51;8.10;;;2.27;;
10295;SDS011;5193;51.032;6.356;2023-05-02T09:04:23;5.83;;;2.03;;
10295;SDS011;5193;51.032;6.356;2023-05-02T09:06:51;7.63;;;2.03;;
10295;SDS011;5193;51.032;6.356;2023-05-02T09:09:16;4.93;;;1.90;;
10295;SDS011;5193;51.032;6.356;2023-05-02T09:11:44;5.17;;;1.60;;
10295;SDS011;5193;51.032;6.356;2023-05-02T09:14:14;4.50;;;2.03;;
10295;SDS011;5193;51.032;6.356;2023-05-02T09:16:40;5.50;;;1.73;;
10295;SDS011;5193;51.032;6.356;2023-05-02T09:19:06;6.87;;;2.20;;
10295;SDS011;5193;51.032;6.356;2023-05-02T09:21:36;10.13;;;1.90;;
10295;SDS011;5193;51.032;6.356;2023-05-02T09:24:14;6.70;;;2.00;;
10295;SDS011;5193;51.032;6.356;2023-05-02T09:26:55;7.93;;;2.13;;
10295;SDS011;5193;51.032;6.356;2023-05-02T09:29:28;6.13;;;2.30;;
10295;SDS011;5193;51.032;6.356;2023-05-02T09:31:59;5.97;;;2.23;;
10295;SDS011;5193;51.032;6.356;2023-05-02T09:34:26;5.57;;;2.00;;
10295;SDS011;5193;51.032;6.356;2023-05-02T09:36:52;5.90;;;1.90;;
10295;SDS011;5193;51.032;6.356;2023-05-02T09:39:25;5.37;;;1.80;;
10295;SDS011;5193;51.032;6.356;2023-05-02T09:41:53;6.00;;;2.07;;
10295;SDS011;5193;51.032;6.356;2023-05-02T09:44:19;5.77;;;2.10;;
10295;SDS011;5193;51.032;6.356;2023-05-02T09:49:13;9.10;;;2.57;;
10295;SDS011;5193;51.032;6.356;2023-05-02T09:51:42;6.33;;;2.27;;
10295;SDS011;5193;51.032;6.356;2023-05-02T09:54:08;7.33;;;2.77;;
10295;SDS011;5193;51.032;6.356;2023-05-02T09:56:50;8.13;;;2.77;;
10295;SDS011;5193;51.032;6.356;2023-05-02T09:59:17;5.27;;;2.10;;
10295;SDS011;5193;51.032;6.356;2023-05-02T10:01:43;10.43;;;3.10;;
10295;SDS011;5193;51.032;6.356;2023-05-02T10:04:12;3.77;;;2.47;;
10295;SDS011;5193;51.032;6.356;2023-05-02T10:06:41;9.03;;;2.87;;
10295;SDS011;5193;51.032;6.356;2023-05-02T10:09:08;8.73;;;2.40;;
10295;SDS011;5193;51.032;6.356;2023-05-02T10:11:36;8.63;;;2.40;;
10295;SDS011;5193;51.032;6.356;2023-05-02T10:14:14;9.17;;;2.63;;
10295;SDS011;5193;51.032;6.356;2023-05-02T10:22:23;6.07;;;2.70;;
10295;SDS011;5193;51.032;6.356;2023-05-02T10:24:50;9.40;;;2.80;;
10295;SDS011;5193;51.032;6.356;2023-05-02T10:27:17;5.90;;;2.13;;
10295;SDS011;5193;51.032;6.356;2023-05-02T10:29:43;5.33;;;2.43;;
10295;SDS011;5193;51.032;6.356;2023-05-02T10:32:10;6.13;;;2.47;;
10295;SDS011;5193;51.032;6.356;2023-05-02T10:34:39;7.97;;;2.70;;
10295;SDS011;5193;51.032;6.356;2023-05-02T10:37:06;13.17;;;3.13;;
10295;SDS011;5193;51.032;6.356;2023-05-02T10:39:31;6.70;;;2.60;;
10295;SDS011;5193;51.032;6.356;2023-05-02T10:41:57;8.33;;;2.77;;
10295;SDS011;5193;51.032;6.356;2023-05-02T10:44:45;8.13;;;3.17;;
10295;SDS011;5193;51.032;6.356;2023-05-02T10:47:17;4.97;;;2.70;;
10295;SDS011;5193;51.032;6.356;2023-05-02T10:49:54;8.70;;;3.10;;
10295;SDS011;5193;51.032;6.356;2023-05-02T10:52:30;8.23;;;3.30;;
10295;SDS011;5193;51.032;6.356;2023-05-02T10:55:40;5.90;;;2.50;;
10295;SDS011;5193;51.032;6.356;2023-05-02T11:00:25;9.63;;;2.97;;
10295;SDS011;5193;51.032;6.356;2023-05-02T11:02:57;7.17;;;2.73;;
10295;SDS011;5193;51.032;6.356;2023-05-02T11:05:24;6.53;;;2.60;;
10295;SDS011;5193;51.032;6.356;2023-05-02T11:10:41;9.33;;;2.77;;
10295;SDS011;5193;51.032;6.356;2023-05-02T11:13:07;6.90;;;2.60;;
10295;SDS011;5193;51.032;6.356;2023-05-02T11:20:31;8.40;;;2.83;;
10295;SDS011;5193;51.032;6.356;2023-05-02T11:22:59;7.03;;;2.40;;
10295;SDS011;5193;51.032;6.356;2023-05-02T11:31:00;7.00;;;2.83;;
10295;SDS011;5193;51.032;6.356;2023-05-02T11:33:27;5.90;;;2.50;;
10295;SDS011;5193;51.032;6.356;2023-05-02T11:35:53;6.10;;;2.93;;
10295;SDS011;5193;51.032;6.356;2023-05-02T11:38:21;9.00;;;3.07;;
10295;SDS011;5193;51.032;6.356;2023-05-02T11:40:53;12.30;;;3.37;;
10295;SDS011;5193;51.032;6.356;2023-05-02T11:43:23;12.67;;;3.20;;
10295;SDS011;5193;51.032;6.356;2023-05-02T11:45:51;9.73;;;2.90;;
10295;SDS011;5193;51.032;6.356;2023-05-02T11:48:17;5.77;;;3.10;;
10295;SDS011;5193;51.032;6.356;2023-05-02T11:50:44;8.80;;;3.00;;
10295;SDS011;5193;51.032;6.356;2023-05-02T11:53:13;6.87;;;2.83;;
10295;SDS011;5193;51.032;6.356;2023-05-02T11:55:44;6.90;;;2.53;;
10295;SDS011;5193;51.032;6.356;2023-05-02T11:58:14;9.20;;;3.00;;
10295;SDS011;5193;51.032;6.356;2023-05-02T12:00:42;6.00;;;2.70;;
10295;SDS011;5193;51.032;6.356;2023-05-02T12:05:48;5.63;;;2.53;;
10295;SDS011;5193;51.032;6.356;2023-05-02T12:08:21;8.03;;;2.63;;
10295;SDS011;5193;51.032;6.356;2023-05-02T12:10:52;8.00;;;3.17;;
10295;SDS011;5193;51.032;6.356;2023-05-02T12:13:20;8.77;;;2.60;;
10295;SDS011;5193;51.032;6.356;2023-05-02T12:15:47;9.90;;;2.63;;
10295;SDS011;5193;51.032;6.356;2023-05-02T12:18:14;7.60;;;2.90;;
10295;SDS011;5193;51.032;6.356;2023-05-02T12:20:40;7.57;;;3.23;;
10295;SDS011;5193;51.032;6.356;2023-05-02T12:23:06;9.20;;;2.77;;
10295;SDS011;5193;51.032;6.356;2023-05-02T12:25:36;16.00;;;3.23;;
10295;SDS011;5193;51.032;6.356;2023-05-02T12:28:03;6.40;;;2.83;;
10295;SDS011;5193;51.032;6.356;2023-05-02T12:30:29;11.13;;;3.00;;
10295;SDS011;5193;51.032;6.356;2023-05-02T12:32:59;7.00;;;2.60;;
10295;SDS011;5193;51.032;6.356;2023-05-02T12:35:25;8.97;;;3.20;;
10295;SDS011;5193;51.032;6.356;2023-05-02T12:37:52;8.17;;;3.20;;
10295;SDS011;5193;51.032;6.356;2023-05-02T12:40:20;8.43;;;3.20;;
10295;SDS011;5193;51.032;6.356;2023-05-02T12:43:00;12.40;;;3.67;;
10295;SDS011;5193;51.032;6.356;2023-05-02T12:45:28;7.37;;;3.13;;
10295;SDS011;5193;51.032;6.356;2023-05-02T12:47:59;9.83;;;3.07;;
10295;SDS011;5193;51.032;6.356;2023-05-02T12:50:35;5.37;;;3.23;;
10295;SDS011;5193;51.032;6.356;2023-05-02T12:53:02;6.23;;;3.13;;
10295;SDS011;5193;51.032;6.356;2023-05-02T12:55:28;10.33;;;3.00;;
10295;SDS011;5193;51.032;6.356;2023-05-02T12:58:02;9.97;;;2.70;;
10295;SDS011;5193;51.032;6.356;2023-05-02T13:00:29;5.67;;;2.80;;
10295;SDS011;5193;51.032;6.356;2023-05-02T13:02:56;6.30;;;2.97;;
10295;SDS011;5193;51.032;6.356;2023-05-02T13:05:22;14.23;;;3.03;;
10295;SDS011;5193;51.032;6.356;2023-05-02T13:07:47;6.13;;;3.13;;
10295;SDS011;5193;51.032;6.356;2023-05-02T13:10:13;7.93;;;3.00;;
10295;SDS011;5193;51.032;6.356;2023-05-02T13:12:41;8.13;;;3.47;;
10295;SDS011;5193;51.032;6.356;2023-05-02T13:15:07;6.70;;;2.50;;
10295;SDS011;5193;51.032;6.356;2023-05-02T13:17:33;6.30;;;2.63;;
10295;SDS011;5193;51.032;6.356;2023-05-02T13:19:59;8.57;;;2.87;;
10295;SDS011;5193;51.032;6.356;2023-05-02T13:22:25;9.13;;;3.20;;
10295;SDS011;5193;51.032;6.356;2023-05-02T13:24:51;12.57;;;3.03;;
10295;SDS011;5193;51.032;6.356;2023-05-02T13:27:18;7.47;;;3.13;;
10295;SDS011;5193;51.032;6.356;2023-05-02T13:29:44;6.03;;;2.57;;
10295;SDS011;5193;51.032;6.356;2023-05-02T13:32:10;6.57;;;2.30;;
10295;SDS011;5193;51.032;6.356;2023-05-02T13:34:35;7.03;;;2.80;;
10295;SDS011;5193;51.032;6.356;2023-05-02T13:37:01;6.17;;;2.63;;
10295;SDS011;5193;51.032;6.356;2023-05-02T13:39:27;7.20;;;2.70;;
10295;SDS011;5193;51.032;6.356;2023-05-02T13:41:53;7.77;;;3.30;;
10295;SDS011;5193;51.032;6.356;2023-05-02T13:44:18;8.70;;;2.93;;
10295;SDS011;5193;51.032;6.356;2023-05-02T13:46:44;6.53;;;2.77;;
10295;SDS011;5193;51.032;6.356;2023-05-02T13:49:09;6.10;;;2.73;;
10295;SDS011;5193;51.032;6.356;2023-05-02T13:51:35;9.63;;;2.70;;
10295;SDS011;5193;51.032;6.356;2023-05-02T13:54:01;8.23;;;2.93;;
10295;SDS011;5193;51.032;6.356;2023-05-02T13:56:26;8.80;;;3.07;;
10295;SDS011;5193;51.032;6.356;2023-05-02T13:58:52;3.87;;;2.43;;
10295;SDS011;5193;51.032;6.356;2023-05-02T14:01:18;4.93;;;2.67;;
10295;SDS011;5193;51.032;6.356;2023-05-02T14:03:43;11.10;;;2.67;;
10295;SDS011;5193;51.032;6.356;2023-05-02T14:06:09;7.17;;;2.87;;
10295;SDS011;5193;51.032;6.356;2023-05-02T14:08:34;7.13;;;3.27;;
10295;SDS011;5193;51.032;6.356;2023-05-02T14:11:00;13.17;;;2.57;;
10295;SDS011;5193;51.032;6.356;2023-05-02T14:13:26;5.27;;;2.90;;
10295;SDS011;5193;51.032;6.356;2023-05-02T14:15:52;9.43;;;2.87;;
10295;SDS011;5193;51.032;6.356;2023-05-02T14:18:18;7.50;;;3.03;;
10295;SDS011;5193;51.032;6.356;2023-05-02T14:20:44;6.97;;;3.00;;
10295;SDS011;5193;51.032;6.356;2023-05-02T14:23:09;6.40;;;2.90;;
10295;SDS011;5193;51.032;6.356;2023-05-02T14:25:35;6.10;;;2.40;;
10295;SDS011;5193;51.032;6.356;2023-05-02T14:28:01;6.07;;;2.70;;
10295;SDS011;5193;51.032;6.356;2023-05-02T14:30:27;4.70;;;2.87;;
10295;SDS011;5193;51.032;6.356;2023-05-02T14:32:53;4.63;;;2.90;;
10295;SDS011;5193;51.032;6.356;2023-05-02T14:35:20;6.37;;;2.83;;
10295;SDS011;5193;51.032;6.356;2023-05-02T14:37:45;7.13;;;3.13;;
10295;SDS011;5193;51.032;6.356;2023-05-02T14:40:11;7.17;;;3.20;;
10295;SDS011;5193;51.032;6.356;2023-05-02T14:42:38;6.87;;;2.60;;
10295;SDS011;5193;51.032;6.356;2023-05-02T14:45:04;6.27;;;3.17;;
10295;SDS011;5193;51.032;6.356;2023-05-02T14:47:30;7.13;;;3.00;;
10295;SDS011;5193;51.032;6.356;2023-05-02T14:49:56;7.53;;;2.67;;
10295;SDS011;5193;51.032;6.356;2023-05-02T14:52:22;6.10;;;3.00;;
10295;SDS011;5193;51.032;6.356;2023-05-02T14:54:47;6.43;;;2.33;;
10295;SDS011;5193;51.032;6.356;2023-05-02T14:57:13;7.90;;;2.83;;
10295;SDS011;5193;51.032;6.356;2023-05-02T14:59:39;9.00;;;3.30;;
10295;SDS011;5193;51.032;6.356;2023-05-02T15:02:05;5.17;;;2.60;;
10295;SDS011;5193;51.032;6.356;2023-05-02T15:04:31;6.40;;;2.80;;
10295;SDS011;5193;51.032;6.356;2023-05-02T15:06:58;6.40;;;3.13;;
10295;SDS011;5193;51.032;6.356;2023-05-02T15:09:24;7.17;;;2.90;;
10295;SDS011;5193;51.032;6.356;2023-05-02T15:11:51;5.83;;;2.97;;
10295;SDS011;5193;51.032;6.356;2023-05-02T15:14:17;9.10;;;2.50;;
10295;SDS011;5193;51.032;6.356;2023-05-02T15:16:42;6.43;;;2.77;;
10295;SDS011;5193;51.032;6.356;2023-05-02T15:19:08;7.00;;;2.77;;
10295;SDS011;5193;51.032;6.356;2023-05-02T15:21:34;5.53;;;3.10;;
10295;SDS011;5193;51.032;6.356;2023-05-02T15:24:00;7.77;;;3.73;;
10295;SDS011;5193;51.032;6.356;2023-05-02T15:26:26;6.90;;;2.83;;
10295;SDS011;5193;51.032;6.356;2023-05-02T15:28:52;5.83;;;2.90;;
10295;SDS011;5193;51.032;6.356;2023-05-02T15:31:18;3.90;;;2.80;;
10295;SDS011;5193;51.032;6.356;2023-05-02T15:33:44;4.40;;;2.80;;
10295;SDS011;5193;51.032;6.356;2023-05-02T15:36:10;6.90;;;3.13;;
10295;SDS011;5193;51.032;6.356;2023-05-02T15:38:35;7.13;;;3.57;;
10295;SDS011;5193;51.032;6.356;2023-05-02T15:41:06;7.40;;;2.87;;